Time;durP1;ratioP1;P1;durP2;ratioP2;P2;SDS_P1;SDS_P2;PMS_P1;PMS_P2;Temp;Humidity;BMP_temperature;BMP_pressure;BME280_temperature;BME280_humidity;BME280_pressure;Samples;Min_cycle;Max_cycle;Signal;HPM_P1;HPM_P2
2022/05/01 00:00:14;;;;;;;20.87;17.40;;;11.50;99.90;;;;;;5054675;28;20186;-63
2022/05/01 00:02:40;;;;;;;22.23;18.58;;;11.50;99.90;;;;;;5052849;28;20215;-63
2022/05/01 00:05:05;;;;;;;22.73;18.53;;;11.80;99.90;;;;;;5062087;28;20222;-63
2022/05/01 00:07:32;;;;;;;22.40;18.13;;;11.70;99.90;;;;;;5054897;28;20613;-65
2022/05/01 00:09:58;;;;;;;23.10;19.13;;;11.50;99.90;;;;;;5044776;28;20437;-63
2022/05/01 00:12:24;;;;;;;24.87;21.20;;;11.50;99.90;;;;;;5055059;28;20186;-64
2022/05/01 00:14:50;;;;;;;24.20;18.60;;;11.70;99.90;;;;;;5056032;28;20277;-63
2022/05/01 00:17:15;;;;;;;26.73;20.00;;;11.40;99.90;;;;;;5049987;28;20480;-64
2022/05/01 00:19:41;;;;;;;22.80;19.13;;;11.50;99.90;;;;;;5053446;28;20191;-64
2022/05/01 00:22:06;;;;;;;24.73;19.37;;;11.60;99.90;;;;;;5053879;28;20207;-62
2022/05/01 00:24:32;;;;;;;24.90;20.90;;;11.50;99.90;;;;;;5050459;28;20695;-62
2022/05/01 00:27:00;;;;;;;23.13;19.60;;;11.10;99.90;;;;;;5051976;28;20189;-63
2022/05/01 00:29:26;;;;;;;23.40;18.80;;;11.30;99.90;;;;;;5048653;28;20262;-63
2022/05/01 00:31:52;;;;;;;23.57;19.67;;;11.60;99.90;;;;;;5055070;28;20740;-63
2022/05/01 00:37:02;;;;;;;26.05;19.83;;;11.30;99.90;;;;;;5049938;28;20293;-63
2022/05/01 00:39:28;;;;;;;24.80;20.92;;;11.30;99.90;;;;;;5051142;28;20191;-63
2022/05/01 00:41:53;;;;;;;26.97;22.60;;;11.30;99.90;;;;;;5046743;28;20221;-63
2022/05/01 00:44:21;;;;;;;25.07;19.80;;;11.30;99.90;;;;;;5050460;28;20213;-62
2022/05/01 00:46:52;;;;;;;23.45;20.45;;;11.10;99.90;;;;;;5046505;28;20274;-63
2022/05/01 00:49:22;;;;;;;24.83;19.88;;;11.20;99.90;;;;;;5040445;28;20298;-63
2022/05/01 00:51:54;;;;;;;25.40;20.15;;;11.10;99.90;;;;;;5046003;28;20272;-63
2022/05/01 00:54:22;;;;;;;27.55;19.67;;;11.20;99.90;;;;;;5050154;28;20212;-63
2022/05/01 00:56:53;;;;;;;26.70;20.58;;;11.30;99.90;;;;;;5047380;28;20227;-63
2022/05/01 00:59:20;;;;;;;27.35;20.88;;;11.20;99.90;;;;;;5044630;28;20187;-63
2022/05/01 01:01:48;;;;;;;25.92;21.05;;;11.20;99.90;;;;;;5045183;28;20208;-63
2022/05/01 01:04:14;;;;;;;26.67;21.17;;;11.10;99.90;;;;;;5047539;28;20209;-63
2022/05/01 01:06:41;;;;;;;25.83;21.65;;;11.20;99.90;;;;;;5051204;28;20682;-64
2022/05/01 01:09:08;;;;;;;31.80;21.42;;;10.70;99.90;;;;;;5040559;28;20671;-63
2022/05/01 01:11:35;;;;;;;27.27;20.00;;;11.10;99.90;;;;;;5047269;28;20257;-63
2022/05/01 01:14:03;;;;;;;25.13;20.30;;;11.00;99.90;;;;;;5046326;28;20280;-62
2022/05/01 01:16:29;;;;;;;26.13;20.88;;;11.00;99.90;;;;;;5044021;28;20224;-62
2022/05/01 01:18:55;;;;;;;25.77;20.65;;;11.30;99.90;;;;;;5051688;28;20183;-63
2022/05/01 01:21:21;;;;;;;25.37;20.73;;;11.20;99.90;;;;;;5041676;28;20207;-63
2022/05/01 01:23:47;;;;;;;25.50;20.00;;;11.10;99.90;;;;;;5050174;28;20211;-63
2022/05/01 01:26:14;;;;;;;28.70;21.35;;;11.00;99.90;;;;;;5040115;28;20437;-63
2022/05/01 01:28:41;;;;;;;31.05;20.88;;;11.10;99.90;;;;;;5050760;28;20985;-63
2022/05/01 01:33:58;;;;;;;30.38;22.50;;;11.10;99.90;;;;;;5056404;28;20279;-63
2022/05/01 01:36:28;;;;;;;24.83;20.40;;;10.60;99.90;;;;;;5043791;28;20178;-63
2022/05/01 01:38:54;;;;;;;26.83;20.23;;;10.90;99.90;;;;;;5047098;28;20191;-63
2022/05/01 01:41:28;;;;;;;26.55;19.63;;;11.20;99.90;;;;;;5044210;28;20678;-63
2022/05/01 01:43:54;;;;;;;24.85;20.30;;;11.40;99.90;;;;;;5054024;28;20204;-63
2022/05/01 01:46:19;;;;;;;24.10;19.17;;;11.30;99.90;;;;;;5051315;28;20634;-63
2022/05/01 01:48:46;;;;;;;27.13;20.87;;;11.20;99.90;;;;;;5052168;28;20185;-68
2022/05/01 01:51:12;;;;;;;28.17;20.85;;;11.20;99.90;;;;;;5047962;28;20182;-65
2022/05/01 01:53:38;;;;;;;26.23;20.55;;;11.30;99.90;;;;;;5049612;28;20297;-65
2022/05/01 01:56:07;;;;;;;27.63;20.63;;;11.20;99.90;;;;;;5046529;28;20269;-66
2022/05/01 01:58:33;;;;;;;30.75;21.00;;;11.00;99.90;;;;;;5049761;28;20581;-65
2022/05/01 02:00:59;;;;;;;31.60;21.33;;;10.90;99.90;;;;;;5047303;28;20220;-66
2022/05/01 02:03:26;;;;;;;27.05;20.27;;;10.90;99.90;;;;;;5045497;28;20275;-67
2022/05/01 02:05:52;;;;;;;27.77;20.88;;;11.20;99.90;;;;;;5053429;28;20617;-65
2022/05/01 02:08:18;;;;;;;29.08;21.50;;;10.90;99.90;;;;;;5051776;28;20298;-65
2022/05/01 02:10:44;;;;;;;28.75;21.63;;;11.00;99.90;;;;;;5049661;28;20660;-68
2022/05/01 02:13:10;;;;;;;28.73;22.02;;;10.80;99.90;;;;;;5047488;28;20207;-65
2022/05/01 02:15:37;;;;;;;27.63;22.88;;;11.20;99.90;;;;;;5050888;28;20825;-65
2022/05/01 02:18:04;;;;;;;28.65;20.77;;;11.10;99.90;;;;;;5043562;28;20182;-67
2022/05/01 02:23:20;;;;;;;31.45;21.50;;;10.80;99.90;;;;;;5050115;28;20243;-66
2022/05/01 02:25:46;;;;;;;30.45;22.13;;;10.30;99.90;;;;;;5047404;28;20183;-65
2022/05/01 02:28:12;;;;;;;24.60;18.38;;;10.70;99.90;;;;;;5058376;28;20190;-65
2022/05/01 02:30:38;;;;;;;28.13;19.20;;;10.90;99.90;;;;;;5049493;28;20189;-66
2022/05/01 02:33:06;;;;;;;26.90;19.95;;;11.10;99.90;;;;;;5042477;28;20439;-66
2022/05/01 02:35:32;;;;;;;26.60;19.85;;;10.80;99.90;;;;;;5049946;28;20259;-67
2022/05/01 02:37:58;;;;;;;26.63;20.05;;;11.20;99.90;;;;;;5047407;28;20198;-66
2022/05/01 02:40:24;;;;;;;25.73;20.73;;;11.40;99.90;;;;;;5048068;28;20537;-65
2022/05/01 02:42:50;;;;;;;26.50;20.50;;;11.50;99.90;;;;;;5054268;28;20214;-65
2022/05/01 02:45:15;;;;;;;26.03;19.37;;;11.20;99.90;;;;;;5046559;28;20202;-65
2022/05/01 02:47:41;;;;;;;25.33;19.90;;;11.00;99.90;;;;;;5045386;28;20235;-65
2022/05/01 02:50:08;;;;;;;24.67;20.13;;;10.80;99.90;;;;;;5047515;28;20235;-65
2022/05/01 02:52:33;;;;;;;25.42;20.67;;;11.00;99.90;;;;;;5040894;28;20722;-66
2022/05/01 02:54:59;;;;;;;26.80;19.43;;;11.00;99.90;;;;;;5040925;28;20288;-69
2022/05/01 02:57:25;;;;;;;28.20;21.80;;;10.70;99.90;;;;;;5042072;28;20194;-65
2022/05/01 02:59:50;;;;;;;28.93;20.60;;;10.90;99.90;;;;;;5047017;28;20190;-65
2022/05/01 03:02:16;;;;;;;25.20;19.10;;;10.70;99.90;;;;;;5043672;28;20679;-65
2022/05/01 03:04:42;;;;;;;27.30;20.07;;;10.70;99.90;;;;;;5046405;28;20206;-65
2022/05/01 03:07:09;;;;;;;26.77;21.27;;;10.60;99.90;;;;;;5041597;28;20178;-65
2022/05/01 03:09:34;;;;;;;28.58;20.35;;;10.40;99.90;;;;;;5046057;28;20222;-65
2022/05/01 03:12:03;;;;;;;28.23;21.33;;;10.60;99.90;;;;;;5044836;28;20190;-65
2022/05/01 03:14:28;;;;;;;28.92;20.88;;;10.30;99.90;;;;;;5046366;28;21056;-65
2022/05/01 03:16:54;;;;;;;28.87;21.50;;;10.60;99.90;;;;;;5040891;28;20197;-65
2022/05/01 03:22:16;;;;;;;27.80;22.13;;;10.80;99.90;;;;;;5042835;28;20220;-66
2022/05/01 03:24:42;;;;;;;27.25;19.80;;;10.90;99.90;;;;;;5047325;28;20667;-66
2022/05/01 03:27:09;;;;;;;27.08;21.23;;;11.10;99.90;;;;;;5047321;28;20179;-65
2022/05/01 03:29:36;;;;;;;29.38;21.60;;;10.80;99.90;;;;;;5043296;28;20190;-67
2022/05/01 03:32:07;;;;;;;28.75;21.48;;;11.10;99.90;;;;;;5043074;28;20248;-66
2022/05/01 03:34:33;;;;;;;28.85;21.92;;;10.90;99.90;;;;;;5048714;28;20331;-65
2022/05/01 03:36:58;;;;;;;29.90;23.50;;;10.50;99.90;;;;;;5048456;28;20235;-65
2022/05/01 03:39:24;;;;;;;30.77;22.60;;;10.70;99.90;;;;;;5043494;28;20297;-67
2022/05/01 03:41:50;;;;;;;32.90;22.50;;;10.80;99.90;;;;;;5045258;28;20614;-65
2022/05/01 03:44:15;;;;;;;26.73;20.10;;;10.90;99.90;;;;;;5049188;28;20670;-65
2022/05/01 03:46:41;;;;;;;31.90;21.93;;;11.00;99.90;;;;;;5045713;28;20175;-66
2022/05/01 03:49:07;;;;;;;31.17;22.27;;;11.00;99.90;;;;;;5049798;28;20627;-65
2022/05/01 03:51:33;;;;;;;32.63;23.43;;;11.10;99.90;;;;;;5043099;28;20182;-65
2022/05/01 03:54:03;;;;;;;30.85;21.15;;;10.60;99.90;;;;;;5047368;28;20442;-66
2022/05/01 03:56:30;;;;;;;34.22;22.15;;;10.80;99.90;;;;;;5048204;28;20266;-65
2022/05/01 03:58:56;;;;;;;29.30;21.48;;;10.80;99.90;;;;;;5046282;28;20481;-65
2022/05/01 04:01:22;;;;;;;32.15;22.98;;;11.10;99.90;;;;;;5049547;28;20206;-65
2022/05/01 04:03:48;;;;;;;30.30;22.60;;;10.90;99.90;;;;;;5044128;28;20745;-65
2022/05/01 04:06:14;;;;;;;31.65;22.60;;;11.40;99.90;;;;;;5038444;28;20538;-65
2022/05/01 04:08:40;;;;;;;31.33;22.43;;;11.00;99.90;;;;;;5043529;28;20181;-66
2022/05/01 04:11:06;;;;;;;29.53;22.50;;;11.10;99.90;;;;;;5043335;28;20243;-66
2022/05/01 04:13:32;;;;;;;29.63;21.30;;;11.20;99.90;;;;;;5053833;28;20503;-66
2022/05/01 04:15:58;;;;;;;32.40;23.73;;;11.00;99.90;;;;;;5044525;28;20218;-66
2022/05/01 04:18:25;;;;;;;28.53;21.53;;;10.10;99.90;;;;;;5047534;28;20220;-65
2022/05/01 04:20:52;;;;;;;30.10;22.98;;;11.20;99.90;;;;;;5051714;28;20193;-68
2022/05/01 04:23:19;;;;;;;29.60;21.83;;;11.00;99.90;;;;;;5049281;28;20543;-67
2022/05/01 04:25:45;;;;;;;34.35;22.65;;;11.10;99.90;;;;;;5052573;28;20236;-66
2022/05/01 04:28:12;;;;;;;31.85;22.15;;;11.00;99.90;;;;;;5051700;28;20186;-67
2022/05/01 04:30:40;;;;;;;29.77;21.80;;;11.00;99.90;;;;;;5048895;28;20186;-65
2022/05/01 04:33:13;;;;;;;28.55;20.67;;;10.90;99.90;;;;;;5047209;28;20196;-66
2022/05/01 04:35:42;;;;;;;31.40;22.55;;;11.20;99.90;;;;;;5050815;28;20284;-66
2022/05/01 04:38:11;;;;;;;28.48;21.65;;;10.70;99.90;;;;;;5052293;28;20190;-66
2022/05/01 04:40:48;;;;;;;28.65;21.00;;;10.80;99.90;;;;;;5048609;28;20185;-66
2022/05/01 04:43:19;;;;;;;30.40;22.05;;;11.20;99.90;;;;;;5050285;28;20196;-66
2022/05/01 04:45:46;;;;;;;30.52;23.15;;;10.90;99.90;;;;;;5043863;28;20597;-65
2022/05/01 04:48:13;;;;;;;30.40;22.10;;;10.40;99.90;;;;;;5050040;28;20194;-66
2022/05/01 04:50:40;;;;;;;25.17;21.10;;;10.90;99.90;;;;;;5053037;28;20182;-67
2022/05/01 04:53:07;;;;;;;28.80;20.45;;;10.90;99.90;;;;;;5056407;28;20181;-66
2022/05/01 04:55:33;;;;;;;29.33;20.80;;;11.00;99.90;;;;;;5045933;28;20289;-66
2022/05/01 04:57:59;;;;;;;27.17;21.20;;;10.90;99.90;;;;;;5050050;28;20592;-66
2022/05/01 05:00:26;;;;;;;25.57;19.63;;;11.00;99.90;;;;;;5051337;28;20536;-65
2022/05/01 05:02:53;;;;;;;25.20;19.10;;;11.20;99.90;;;;;;5048738;28;20288;-68
2022/05/01 05:05:20;;;;;;;28.13;21.17;;;11.20;99.90;;;;;;5047170;28;20206;-66
2022/05/01 05:07:47;;;;;;;25.13;19.05;;;11.10;99.90;;;;;;5043601;28;20656;-65
2022/05/01 05:10:14;;;;;;;26.63;21.33;;;11.20;99.90;;;;;;5049736;28;20204;-67
2022/05/01 05:12:42;;;;;;;26.92;20.80;;;10.80;99.90;;;;;;5047057;28;20185;-67
2022/05/01 05:15:10;;;;;;;25.27;20.38;;;10.90;99.90;;;;;;5043845;28;20212;-66
2022/05/01 05:17:37;;;;;;;25.15;19.02;;;10.90;99.90;;;;;;5047591;28;20605;-69
2022/05/01 05:20:07;;;;;;;23.98;19.23;;;11.00;99.90;;;;;;5042936;28;20687;-67
2022/05/01 05:22:36;;;;;;;27.13;20.08;;;11.40;99.90;;;;;;5040724;28;20220;-66
2022/05/01 05:25:04;;;;;;;28.98;19.65;;;11.30;99.90;;;;;;5047311;28;20202;-65
2022/05/01 05:27:30;;;;;;;25.02;20.00;;;11.50;99.90;;;;;;5050410;28;20183;-67
2022/05/01 05:29:56;;;;;;;24.50;20.33;;;11.30;99.90;;;;;;5045262;28;20198;-66
2022/05/01 05:32:23;;;;;;;24.88;19.95;;;11.00;99.90;;;;;;5048452;28;20200;-66
2022/05/01 05:34:50;;;;;;;27.25;21.60;;;11.10;99.90;;;;;;5056605;28;20296;-66
2022/05/01 05:37:17;;;;;;;24.95;20.40;;;11.00;99.90;;;;;;5050390;28;20212;-66
2022/05/01 05:39:43;;;;;;;27.13;21.00;;;10.90;99.90;;;;;;5044087;28;20191;-67
2022/05/01 05:42:09;;;;;;;27.08;21.13;;;11.00;99.90;;;;;;5043489;28;20739;-70
2022/05/01 05:44:34;;;;;;;28.93;21.20;;;10.90;99.90;;;;;;5060461;28;20232;-68
2022/05/01 05:47:00;;;;;;;27.50;20.50;;;11.00;99.90;;;;;;5049420;28;20186;-66
2022/05/01 05:49:26;;;;;;;28.63;21.50;;;10.90;99.90;;;;;;5054572;28;20194;-67
2022/05/01 05:51:52;;;;;;;27.90;21.47;;;11.30;99.90;;;;;;5045877;28;20461;-68
2022/05/01 05:54:18;;;;;;;26.33;21.50;;;11.30;99.90;;;;;;5043876;28;20207;-66
2022/05/01 05:56:44;;;;;;;26.40;20.27;;;11.30;99.90;;;;;;5049109;28;20194;-66
2022/05/01 05:59:09;;;;;;;25.77;21.00;;;11.30;99.90;;;;;;5050155;28;20442;-67
2022/05/01 06:01:35;;;;;;;26.00;22.07;;;11.20;99.90;;;;;;5048750;28;20217;-65
2022/05/01 06:04:01;;;;;;;30.17;21.57;;;11.50;99.90;;;;;;5045427;28;20217;-65
2022/05/01 06:06:27;;;;;;;26.37;21.37;;;11.30;99.90;;;;;;5040869;28;20704;-65
2022/05/01 06:08:53;;;;;;;27.17;21.13;;;11.20;99.90;;;;;;5053836;28;20440;-65
2022/05/01 06:11:18;;;;;;;23.38;19.42;;;11.50;99.90;;;;;;5049957;28;20467;-65
2022/05/01 06:13:44;;;;;;;31.00;22.70;;;11.30;99.90;;;;;;5049999;28;20207;-67
2022/05/01 06:16:10;;;;;;;26.33;20.43;;;11.40;99.90;;;;;;5046372;28;20218;-65
2022/05/01 06:18:36;;;;;;;23.92;19.98;;;11.20;99.90;;;;;;5050896;28;20200;-66
2022/05/01 06:21:02;;;;;;;25.37;19.83;;;11.50;99.90;;;;;;5053476;28;20210;-65
2022/05/01 06:23:27;;;;;;;27.43;22.10;;;11.40;99.90;;;;;;5054548;28;20175;-65
2022/05/01 06:25:53;;;;;;;27.07;20.77;;;11.40;99.90;;;;;;5045973;28;20269;-65
2022/05/01 06:28:19;;;;;;;24.40;19.87;;;11.50;99.90;;;;;;5048792;28;20552;-66
2022/05/01 06:30:46;;;;;;;25.10;19.60;;;11.60;99.90;;;;;;5051167;28;20449;-65
2022/05/01 06:33:20;;;;;;;26.40;19.70;;;11.70;99.90;;;;;;5044415;28;20237;-68
2022/05/01 06:35:51;;;;;;;23.65;19.48;;;11.70;99.90;;;;;;5045071;28;20261;-66
2022/05/01 06:38:16;;;;;;;26.13;19.52;;;11.70;99.90;;;;;;5046344;28;20191;-65
2022/05/01 06:40:43;;;;;;;24.77;18.27;;;12.00;99.90;;;;;;5045431;28;20184;-65
2022/05/01 06:43:13;;;;;;;22.17;19.15;;;12.00;99.90;;;;;;5047171;28;20438;-65
2022/05/01 06:45:39;;;;;;;24.98;18.35;;;12.10;99.90;;;;;;5047248;28;20200;-66
2022/05/01 06:48:07;;;;;;;23.05;18.95;;;12.00;99.90;;;;;;5047657;28;20653;-66
2022/05/01 06:50:33;;;;;;;22.50;18.88;;;11.80;99.90;;;;;;5045178;28;20224;-65
2022/05/01 06:52:58;;;;;;;25.57;19.20;;;12.10;99.90;;;;;;5043803;28;20226;-66
2022/05/01 06:55:25;;;;;;;21.83;18.30;;;12.20;99.90;;;;;;5057225;28;20208;-65
2022/05/01 06:57:55;;;;;;;26.83;20.17;;;12.20;99.90;;;;;;5048789;28;20184;-67
2022/05/01 07:00:21;;;;;;;23.63;18.55;;;12.10;99.90;;;;;;5053508;28;20204;-68
2022/05/01 07:02:49;;;;;;;22.35;18.50;;;12.10;99.90;;;;;;5046792;28;20212;-66
2022/05/01 07:05:15;;;;;;;24.95;20.30;;;12.50;99.90;;;;;;5047207;28;20291;-65
2022/05/01 07:07:40;;;;;;;22.45;18.50;;;12.90;99.90;;;;;;5049317;28;20238;-64
2022/05/01 07:10:07;;;;;;;22.33;18.17;;;12.60;99.90;;;;;;5043506;28;20197;-68
2022/05/01 07:12:32;;;;;;;22.83;18.58;;;12.40;99.90;;;;;;5048252;28;20188;-65
2022/05/01 07:14:58;;;;;;;22.50;17.93;;;12.70;99.90;;;;;;5048582;28;20707;-68
2022/05/01 07:17:24;;;;;;;22.50;17.63;;;12.30;99.90;;;;;;5054339;28;20189;-67
2022/05/01 07:19:49;;;;;;;22.80;19.13;;;12.50;99.90;;;;;;5048183;28;20238;-65
2022/05/01 07:22:16;;;;;;;23.13;19.07;;;12.30;99.90;;;;;;5049257;28;20474;-67
2022/05/01 07:24:42;;;;;;;22.33;19.35;;;12.40;99.90;;;;;;5042708;28;20207;-68
2022/05/01 07:27:08;;;;;;;20.53;17.43;;;12.50;99.90;;;;;;5046569;28;20184;-66
2022/05/01 07:29:34;;;;;;;22.77;17.53;;;12.50;99.90;;;;;;5046398;28;20191;-66
2022/05/01 07:31:59;;;;;;;22.90;18.23;;;12.90;99.90;;;;;;5046585;28;20821;-63
2022/05/01 07:34:25;;;;;;;20.20;18.00;;;12.90;99.90;;;;;;5048952;28;20849;-65
2022/05/01 07:36:51;;;;;;;20.20;17.57;;;12.50;99.90;;;;;;5043558;28;20693;-63
2022/05/01 07:39:16;;;;;;;21.53;18.60;;;12.50;99.90;;;;;;5045855;28;20193;-63
2022/05/01 07:41:42;;;;;;;20.30;17.37;;;12.70;99.90;;;;;;5043398;28;20204;-65
2022/05/01 07:44:13;;;;;;;23.70;17.23;;;12.40;99.90;;;;;;5061544;28;20256;-66
2022/05/01 07:46:40;;;;;;;22.45;17.35;;;12.60;99.90;;;;;;5042271;28;20184;-67
2022/05/01 07:49:07;;;;;;;20.40;17.30;;;12.50;99.90;;;;;;5048958;28;20211;-63
2022/05/01 07:51:32;;;;;;;21.90;17.42;;;12.50;99.90;;;;;;5044753;28;20195;-65
2022/05/01 07:53:58;;;;;;;22.97;18.27;;;12.20;99.90;;;;;;5050234;28;20299;-65
2022/05/01 07:56:28;;;;;;;21.20;16.57;;;12.30;99.90;;;;;;5046249;28;20534;-60
2022/05/01 07:58:54;;;;;;;18.98;16.40;;;12.40;99.90;;;;;;5042750;28;20189;-61
2022/05/01 08:01:20;;;;;;;19.75;17.10;;;12.90;99.90;;;;;;5052484;28;20244;-62
2022/05/01 08:06:30;;;;;;;20.75;17.00;;;13.20;99.90;;;;;;5043154;28;20227;-65
2022/05/01 08:08:55;;;;;;;17.13;15.33;;;12.90;99.90;;;;;;5045233;28;20216;-62
2022/05/01 08:11:21;;;;;;;20.67;17.80;;;13.10;99.90;;;;;;5049667;28;20564;-63
2022/05/01 08:13:47;;;;;;;19.20;17.20;;;13.50;99.90;;;;;;5047985;28;20241;-61
2022/05/01 08:16:13;;;;;;;19.03;15.93;;;13.80;99.90;;;;;;5048290;28;20489;-65
2022/05/01 08:21:23;;;;;;;18.55;16.65;;;13.90;99.90;;;;;;5044464;28;20458;-67
2022/05/01 08:23:49;;;;;;;17.10;15.30;;;14.40;99.90;;;;;;5066893;28;20414;-66
2022/05/01 08:26:17;;;;;;;17.53;15.73;;;15.10;99.60;;;;;;5051426;28;20432;-66
2022/05/01 08:28:45;;;;;;;16.77;15.00;;;15.20;98.30;;;;;;5051884;28;20813;-66
2022/05/01 08:31:10;;;;;;;17.88;14.63;;;15.30;97.70;;;;;;5051438;28;20197;-67
2022/05/01 08:33:37;;;;;;;16.70;15.00;;;15.40;97.50;;;;;;5049890;28;20658;-64
2022/05/01 08:36:05;;;;;;;16.83;14.65;;;14.90;97.40;;;;;;5049624;28;20190;-63
2022/05/01 08:38:31;;;;;;;16.90;15.10;;;14.80;98.30;;;;;;5054706;28;20192;-62
2022/05/01 08:40:57;;;;;;;16.30;14.60;;;14.70;98.60;;;;;;5049469;28;20185;-67
2022/05/01 08:43:24;;;;;;;16.93;14.60;;;14.80;98.60;;;;;;5048747;28;20502;-65
2022/05/01 08:45:53;;;;;;;16.15;14.50;;;14.90;98.90;;;;;;5057303;28;20492;-64
2022/05/01 08:48:44;;;;;;;16.77;14.98;;;14.40;98.90;;;;;;5065543;28;20277;-64
2022/05/01 08:51:11;;;;;;;17.88;16.08;;;14.10;99.60;;;;;;5052463;28;20242;-70
2022/05/01 08:53:37;;;;;;;18.70;15.52;;;14.50;99.70;;;;;;5050973;28;20571;-65
2022/05/01 08:56:06;;;;;;;15.85;14.30;;;14.40;99.00;;;;;;5048395;28;20193;-64
2022/05/01 08:58:33;;;;;;;20.80;16.55;;;14.30;98.50;;;;;;5047045;28;20670;-65
2022/05/01 09:00:59;;;;;;;16.88;13.85;;;14.10;99.20;;;;;;5048131;28;20670;-65
2022/05/01 09:03:25;;;;;;;17.50;15.57;;;14.50;99.30;;;;;;5050253;28;20311;-64
2022/05/01 09:05:51;;;;;;;15.95;13.63;;;14.40;98.80;;;;;;5051319;28;20603;-62
2022/05/01 09:08:17;;;;;;;15.32;13.75;;;14.20;99.00;;;;;;5049539;28;20182;-65
2022/05/01 09:10:44;;;;;;;15.20;13.70;;;14.50;98.50;;;;;;5047281;28;20208;-67
2022/05/01 09:13:10;;;;;;;15.00;13.32;;;14.30;98.40;;;;;;5050691;28;20194;-68
2022/05/01 09:15:41;;;;;;;14.98;13.38;;;14.80;98.60;;;;;;5047495;28;20231;-66
2022/05/01 09:18:11;;;;;;;16.27;14.10;;;15.00;97.40;;;;;;5049993;28;20181;-62
2022/05/01 09:20:57;;;;;;;15.10;13.23;;;15.30;96.50;;;;;;5043506;28;20635;-62
2022/05/01 09:23:42;;;;;;;14.43;12.93;;;15.00;96.30;;;;;;5047473;28;20522;-66
2022/05/01 09:26:13;;;;;;;14.70;13.10;;;15.70;95.30;;;;;;5049381;28;20624;-67
2022/05/01 09:28:53;;;;;;;14.40;12.40;;;15.80;94.80;;;;;;5044981;28;20205;-65
2022/05/01 09:31:47;;;;;;;14.95;13.45;;;15.90;94.60;;;;;;5053012;28;20187;-68
2022/05/01 09:34:21;;;;;;;14.68;13.18;;;15.60;94.80;;;;;;5045029;28;20197;-67
2022/05/01 09:36:47;;;;;;;16.20;14.63;;;15.50;94.90;;;;;;5043657;28;20727;-67
2022/05/01 09:39:21;;;;;;;17.70;14.40;;;15.30;95.40;;;;;;5049715;28;20592;-67
2022/05/01 09:41:48;;;;;;;15.30;13.70;;;14.80;95.90;;;;;;5046569;28;20209;-68
2022/05/01 09:44:15;;;;;;;16.08;14.48;;;15.50;96.00;;;;;;5045123;28;20206;-69
2022/05/01 09:46:43;;;;;;;15.25;13.55;;;15.50;95.10;;;;;;5045301;28;20175;-69
2022/05/01 09:49:13;;;;;;;14.30;12.73;;;15.00;96.10;;;;;;5051760;28;20296;-69
2022/05/01 09:51:46;;;;;;;16.75;13.63;;;15.00;96.20;;;;;;5045433;28;20178;-69
2022/05/01 09:54:25;;;;;;;16.45;14.52;;;16.00;95.70;;;;;;5046997;28;20201;-69
2022/05/01 09:56:54;;;;;;;15.23;13.30;;;16.70;94.10;;;;;;5049016;28;20195;-66
2022/05/01 09:59:22;;;;;;;15.00;13.10;;;16.80;93.00;;;;;;5046618;28;20247;-67
2022/05/01 10:02:03;;;;;;;14.30;12.85;;;17.10;92.10;;;;;;5048162;28;20254;-61
2022/05/01 10:04:31;;;;;;;15.55;13.95;;;17.10;92.30;;;;;;5043302;28;20317;-61
2022/05/01 10:06:58;;;;;;;16.63;14.63;;;16.60;92.10;;;;;;5045137;28;20188;-61
2022/05/01 10:09:26;;;;;;;14.52;13.07;;;16.60;92.80;;;;;;5048602;28;20269;-61
2022/05/01 10:11:55;;;;;;;16.70;13.02;;;15.90;93.40;;;;;;5047829;28;20573;-61
2022/05/01 10:14:21;;;;;;;16.00;14.30;;;15.70;94.00;;;;;;5046364;28;20193;-61
2022/05/01 10:16:48;;;;;;;15.13;13.52;;;15.50;94.00;;;;;;5047185;28;20181;-63
2022/05/01 10:19:18;;;;;;;14.15;12.68;;;15.90;94.30;;;;;;5050791;28;20624;-61
2022/05/01 10:21:49;;;;;;;14.68;13.18;;;15.60;93.40;;;;;;5043621;28;20674;-61
2022/05/01 10:24:16;;;;;;;14.40;12.75;;;16.20;93.00;;;;;;5051899;28;20659;-62
2022/05/01 10:27:20;;;;;;;14.35;12.85;;;16.70;92.20;;;;;;5045381;28;20178;-61
2022/05/01 10:32:44;;;;;;;13.02;11.63;;;16.50;91.70;;;;;;5041867;28;20242;-61
2022/05/01 10:35:39;;;;;;;12.82;11.52;;;15.50;91.20;;;;;;5046487;28;20213;-61
2022/05/01 10:38:29;;;;;;;12.90;11.05;;;16.40;92.00;;;;;;5046176;28;20580;-61
2022/05/01 10:41:00;;;;;;;11.98;10.77;;;16.80;91.10;;;;;;5044149;28;20186;-61
2022/05/01 10:43:33;;;;;;;12.52;11.30;;;17.40;89.40;;;;;;5044954;28;20263;-61
2022/05/01 10:46:01;;;;;;;15.48;12.00;;;17.40;90.00;;;;;;5047457;28;20268;-61
2022/05/01 10:48:31;;;;;;;13.07;11.77;;;17.00;88.90;;;;;;5050158;28;20235;-61
2022/05/01 10:51:31;;;;;;;12.70;11.43;;;16.20;90.90;;;;;;5049072;28;20182;-61
2022/05/01 10:54:15;;;;;;;14.05;12.70;;;16.80;90.20;;;;;;5063602;28;20745;-61
2022/05/01 10:56:42;;;;;;;13.10;10.38;;;16.60;90.30;;;;;;5047104;28;20181;-61
2022/05/01 10:59:30;;;;;;;11.80;10.20;;;17.00;90.30;;;;;;5050537;28;20186;-62
2022/05/01 11:01:58;;;;;;;11.63;10.48;;;17.30;88.40;;;;;;5042117;28;20198;-63
2022/05/01 11:04:24;;;;;;;13.77;12.38;;;17.20;88.80;;;;;;5044687;28;20204;-63
2022/05/01 11:06:54;;;;;;;15.02;11.80;;;16.80;90.00;;;;;;5048514;28;20266;-65
2022/05/01 11:09:24;;;;;;;13.00;11.60;;;16.90;89.40;;;;;;5044818;28;20538;-63
2022/05/01 11:11:57;;;;;;;12.85;11.38;;;16.90;89.50;;;;;;5046736;28;20276;-62
2022/05/01 11:14:38;;;;;;;13.02;11.73;;;16.90;89.20;;;;;;5043800;28;20283;-69
2022/05/01 11:17:05;;;;;;;13.27;11.90;;;16.60;89.40;;;;;;5044679;28;20182;-61
2022/05/01 11:19:51;;;;;;;13.35;12.05;;;16.20;90.50;;;;;;5048316;28;20205;-61
2022/05/01 11:22:25;;;;;;;12.20;11.05;;;16.30;89.70;;;;;;5040035;28;20209;-61
2022/05/01 11:24:51;;;;;;;12.82;11.38;;;15.90;90.10;;;;;;5044906;28;20394;-61
2022/05/01 11:27:18;;;;;;;14.90;13.13;;;16.20;90.70;;;;;;5045779;28;20204;-62
2022/05/01 11:30:06;;;;;;;12.52;11.32;;;16.40;90.80;;;;;;5039315;28;20642;-62
2022/05/01 11:33:06;;;;;;;12.57;11.27;;;16.70;90.30;;;;;;5044781;28;20250;-62
2022/05/01 11:35:56;;;;;;;12.15;10.80;;;16.70;89.70;;;;;;5052300;28;20205;-62
2022/05/01 11:38:33;;;;;;;12.48;11.27;;;17.10;88.50;;;;;;5043915;28;20182;-62
2022/05/01 11:41:01;;;;;;;11.40;10.20;;;17.10;88.30;;;;;;5042150;28;20186;-62
2022/05/01 11:43:28;;;;;;;10.77;9.68;;;17.40;85.70;;;;;;5043701;28;20170;-62
2022/05/01 11:45:59;;;;;;;10.30;9.13;;;17.60;84.20;;;;;;5038688;28;20690;-62
2022/05/01 11:48:25;;;;;;;10.80;9.80;;;17.80;84.20;;;;;;5037565;28;20305;-62
2022/05/01 11:50:53;;;;;;;11.02;9.93;;;18.20;84.30;;;;;;5040200;28;20178;-62
2022/05/01 11:53:30;;;;;;;10.80;9.27;;;17.70;84.10;;;;;;5043864;28;20178;-62
2022/05/01 12:04:35;;;;;;;10.88;9.88;;;18.50;81.50;;;;;;5040216;28;20289;-62
2022/05/01 12:07:15;;;;;;;12.25;10.93;;;18.30;81.70;;;;;;5045152;28;20186;-62
2022/05/01 12:09:42;;;;;;;12.20;11.00;;;18.40;79.80;;;;;;5047832;28;20217;-61
2022/05/01 12:12:12;;;;;;;11.10;9.93;;;18.10;80.70;;;;;;5044110;28;20183;-62
2022/05/01 12:14:39;;;;;;;11.20;10.10;;;18.30;81.10;;;;;;5046069;28;20209;-63
2022/05/01 12:17:07;;;;;;;11.93;10.77;;;18.40;80.30;;;;;;5047647;28;20602;-62
2022/05/01 12:19:42;;;;;;;11.10;10.00;;;18.50;80.10;;;;;;5045389;28;20196;-60
2022/05/01 12:22:13;;;;;;;13.48;11.68;;;18.20;79.30;;;;;;5045688;28;20237;-61
2022/05/01 12:24:39;;;;;;;12.70;11.35;;;17.50;81.70;;;;;;5040970;28;20285;-62
2022/05/01 12:27:07;;;;;;;11.93;10.88;;;17.00;83.30;;;;;;5039787;28;20198;-62
2022/05/01 12:29:33;;;;;;;11.32;10.23;;;17.20;84.60;;;;;;5047908;28;20247;-62
2022/05/01 12:32:08;;;;;;;10.40;9.32;;;17.40;84.10;;;;;;5044657;28;20189;-64
2022/05/01 12:34:44;;;;;;;13.25;11.98;;;17.90;81.30;;;;;;5046615;28;20783;-61
2022/05/01 12:37:34;;;;;;;12.15;10.95;;;17.90;82.60;;;;;;5044940;28;20192;-61
2022/05/01 12:40:03;;;;;;;13.90;10.80;;;18.30;81.10;;;;;;5039838;28;20197;-61
2022/05/01 12:45:35;;;;;;;12.25;11.05;;;18.70;81.00;;;;;;5048589;28;20609;-61
2022/05/01 12:48:03;;;;;;;12.40;11.20;;;18.50;79.10;;;;;;5048055;28;20203;-61
2022/05/01 12:50:31;;;;;;;14.13;11.93;;;18.20;80.50;;;;;;5052096;28;20197;-61
2022/05/01 12:53:02;;;;;;;12.93;11.63;;;18.00;81.00;;;;;;5048816;28;20243;-63
2022/05/01 12:55:32;;;;;;;12.82;11.52;;;17.60;82.30;;;;;;5049289;28;20265;-63
2022/05/01 12:58:00;;;;;;;12.60;11.45;;;17.30;83.40;;;;;;5042937;28;20238;-62
2022/05/01 13:00:38;;;;;;;12.65;11.35;;;17.50;83.20;;;;;;5051651;28;20230;-61
2022/05/01 13:03:27;;;;;;;12.02;10.82;;;17.40;83.70;;;;;;5047945;28;20212;-61
2022/05/01 13:05:58;;;;;;;14.52;12.90;;;17.60;82.00;;;;;;5049592;28;20220;-61